Time;durP1;ratioP1;P1;durP2;ratioP2;P2;SDS_P1;SDS_P2;PMS_P1;PMS_P2;Temp;Humidity;BMP_temperature;BMP_pressure;BME280_temperature;BME280_humidity;BME280_pressure;Samples;Min_cycle;Max_cycle;Signal;HPM_P1;HPM_P2
2022/08/10 00:00:43;;;;;;;3.33;1.30;;;;;;;;;;6272708;22;20181;-73
2022/08/10 00:03:09;;;;;;;1.50;1.20;;;;;;;;;;6273673;22;20145;-74
2022/08/10 00:05:34;;;;;;;2.33;1.23;;;;;;;;;;6272054;22;20583;-72
2022/08/10 00:07:59;;;;;;;2.95;1.10;;;;;;;;;;6273385;22;20160;-73
2022/08/10 00:10:24;;;;;;;1.15;1.13;;;;;;;;;;6274047;22;20224;-72
2022/08/10 00:12:50;;;;;;;1.27;1.17;;;;;;;;;;6271381;22;20148;-72
2022/08/10 00:15:16;;;;;;;1.25;1.15;;;;;;;;;;6272635;22;20176;-73
2022/08/10 00:17:41;;;;;;;2.30;1.30;;;;;;;;;;6273660;22;20140;-73
2022/08/10 00:20:07;;;;;;;1.23;1.10;;;;;;;;;;6274321;22;20155;-73
2022/08/10 00:22:33;;;;;;;1.52;1.33;;;;;;;;;;6297416;22;20176;-73
2022/08/10 00:24:58;;;;;;;1.90;1.00;;;;;;;;;;6273609;22;20584;-73
2022/08/10 00:27:24;;;;;;;1.20;1.10;;;;;;;;;;6274158;22;20148;-73
2022/08/10 00:29:49;;;;;;;3.28;1.13;;;;;;;;;;6272227;22;20148;-74
2022/08/10 00:32:15;;;;;;;2.38;1.17;;;;;;;;;;6273421;22;20140;-73
2022/08/10 00:34:40;;;;;;;1.85;1.17;;;;;;;;;;6273429;22;20592;-73
2022/08/10 00:37:05;;;;;;;2.05;1.30;;;;;;;;;;6271847;22;20727;-72
2022/08/10 00:39:30;;;;;;;2.28;1.17;;;;;;;;;;6264124;22;20155;-74
2022/08/10 00:41:55;;;;;;;1.50;1.25;;;;;;;;;;6273599;22;20155;-74
2022/08/10 00:44:20;;;;;;;0.90;0.90;;;;;;;;;;6275286;22;20214;-73
2022/08/10 00:46:46;;;;;;;1.23;1.10;;;;;;;;;;6261361;22;20604;-71
2022/08/10 00:49:11;;;;;;;2.10;1.35;;;;;;;;;;6262985;22;20183;-72
2022/08/10 00:51:36;;;;;;;2.40;1.05;;;;;;;;;;6274900;22;20188;-72
2022/08/10 00:54:02;;;;;;;1.40;1.30;;;;;;;;;;6274968;22;20192;-74
2022/08/10 00:56:27;;;;;;;1.83;1.10;;;;;;;;;;6275222;22;20637;-74
2022/08/10 00:58:52;;;;;;;2.00;1.23;;;;;;;;;;6274929;22;20530;-72
2022/08/10 01:01:17;;;;;;;1.30;1.20;;;;;;;;;;6275652;22;20148;-74
2022/08/10 01:03:43;;;;;;;1.50;1.23;;;;;;;;;;6274821;22;20584;-74
2022/08/10 01:06:12;;;;;;;1.80;1.33;;;;;;;;;;6274910;22;20676;-74
2022/08/10 01:08:37;;;;;;;0.90;0.90;;;;;;;;;;6295875;22;20168;-73
2022/08/10 01:11:12;;;;;;;2.78;1.88;;;;;;;;;;6275445;22;20144;-74
2022/08/10 01:13:43;;;;;;;1.55;1.42;;;;;;;;;;6275520;22;20396;-74
2022/08/10 01:16:11;;;;;;;2.58;1.20;;;;;;;;;;6275012;22;20184;-72
2022/08/10 01:18:41;;;;;;;1.25;1.10;;;;;;;;;;6275305;22;20176;-75
2022/08/10 01:21:22;;;;;;;1.40;1.30;;;;;;;;;;6275838;22;20168;-74
2022/08/10 01:24:02;;;;;;;2.50;2.05;;;;;;;;;;6274599;22;20175;-74
2022/08/10 01:26:33;;;;;;;2.05;1.30;;;;;;;;;;6273446;22;20172;-74
2022/08/10 01:29:17;;;;;;;3.30;1.27;;;;;;;;;;6275619;22;20148;-74
2022/08/10 01:31:45;;;;;;;1.98;1.27;;;;;;;;;;6274776;22;20199;-73
2022/08/10 01:34:13;;;;;;;1.40;1.30;;;;;;;;;;6274901;22;20156;-74
2022/08/10 01:36:45;;;;;;;1.48;1.38;;;;;;;;;;6274278;22;20498;-74
2022/08/10 01:39:14;;;;;;;1.73;1.20;;;;;;;;;;6299093;22;20476;-74
2022/08/10 01:41:41;;;;;;;2.33;1.70;;;;;;;;;;6274688;22;20231;-74
2022/08/10 01:44:10;;;;;;;2.20;1.50;;;;;;;;;;6273276;22;20228;-73
2022/08/10 01:46:38;;;;;;;1.65;1.40;;;;;;;;;;6273952;22;20172;-73
2022/08/10 01:49:07;;;;;;;2.45;1.60;;;;;;;;;;6275459;22;20144;-74
2022/08/10 01:51:35;;;;;;;2.05;1.40;;;;;;;;;;6273832;22;20220;-74
2022/08/10 01:54:08;;;;;;;2.95;1.30;;;;;;;;;;6274332;22;20149;-74
2022/08/10 01:56:35;;;;;;;1.65;1.45;;;;;;;;;;6274617;22;20184;-73
2022/08/10 01:59:06;;;;;;;1.75;1.30;;;;;;;;;;6273769;22;20195;-73
2022/08/10 02:01:33;;;;;;;1.77;1.23;;;;;;;;;;6297989;22;20164;-74
2022/08/10 02:04:01;;;;;;;3.67;1.70;;;;;;;;;;6271732;22;20649;-73
2022/08/10 02:06:26;;;;;;;1.40;1.30;;;;;;;;;;6274370;22;20235;-72
2022/08/10 02:08:52;;;;;;;2.05;1.30;;;;;;;;;;6275623;22;20172;-74
2022/08/10 02:11:18;;;;;;;1.73;1.50;;;;;;;;;;6274446;22;20155;-74
2022/08/10 02:13:44;;;;;;;1.70;1.60;;;;;;;;;;6274907;22;20148;-74
2022/08/10 02:16:10;;;;;;;2.35;2.15;;;;;;;;;;6274635;22;20172;-74
2022/08/10 02:18:36;;;;;;;1.70;1.60;;;;;;;;;;6273383;22;20144;-74
2022/08/10 02:21:06;;;;;;;4.25;1.70;;;;;;;;;;6273743;22;20654;-74
2022/08/10 02:23:33;;;;;;;2.00;1.60;;;;;;;;;;6273912;22;20145;-74
2022/08/10 02:25:59;;;;;;;1.77;1.40;;;;;;;;;;6275382;22;20286;-74
2022/08/10 02:28:25;;;;;;;4.28;1.83;;;;;;;;;;6273793;22;20156;-74
2022/08/10 02:30:51;;;;;;;3.15;2.25;;;;;;;;;;6275219;22;20152;-74
2022/08/10 02:33:17;;;;;;;2.65;1.77;;;;;;;;;;6274050;22;20156;-74
2022/08/10 02:35:44;;;;;;;2.95;1.77;;;;;;;;;;6273855;22;20247;-74
2022/08/10 02:38:11;;;;;;;3.47;1.75;;;;;;;;;;6273118;22;20596;-74
2022/08/10 02:40:40;;;;;;;2.80;1.92;;;;;;;;;;6297575;22;20188;-74
2022/08/10 02:43:24;;;;;;;2.13;1.92;;;;;;;;;;6273816;22;20224;-72
2022/08/10 02:45:53;;;;;;;2.85;1.80;;;;;;;;;;6274898;22;20239;-72
2022/08/10 02:48:20;;;;;;;2.92;1.90;;;;;;;;;;6273515;22;20153;-72
2022/08/10 02:50:49;;;;;;;2.40;2.17;;;;;;;;;;6273314;22;20148;-72
2022/08/10 02:53:21;;;;;;;2.30;2.10;;;;;;;;;;6298004;22;20160;-72
2022/08/10 02:55:46;;;;;;;2.38;1.80;;;;;;;;;;6273064;22;20259;-72
2022/08/10 02:58:14;;;;;;;2.23;1.90;;;;;;;;;;6274351;22;20160;-72
2022/08/10 03:00:41;;;;;;;4.22;1.90;;;;;;;;;;6273568;22;20863;-73
2022/08/10 03:03:08;;;;;;;3.42;2.75;;;;;;;;;;6272282;22;20147;-73
2022/08/10 03:05:34;;;;;;;2.53;2.33;;;;;;;;;;6272189;22;20172;-72
2022/08/10 03:08:01;;;;;;;2.55;2.30;;;;;;;;;;6273974;22;20152;-73
2022/08/10 03:10:27;;;;;;;2.78;1.77;;;;;;;;;;6272539;22;20148;-73
2022/08/10 03:13:00;;;;;;;4.45;2.33;;;;;;;;;;6273615;22;20148;-73
2022/08/10 03:15:26;;;;;;;2.42;2.22;;;;;;;;;;6274504;22;20183;-73
2022/08/10 03:17:52;;;;;;;3.53;2.40;;;;;;;;;;6274232;22;20150;-73
2022/08/10 03:20:18;;;;;;;2.92;2.67;;;;;;;;;;6272514;22;20227;-72
2022/08/10 03:22:44;;;;;;;2.60;2.40;;;;;;;;;;6273571;22;20140;-73
2022/08/10 03:25:10;;;;;;;2.58;2.38;;;;;;;;;;6273297;22;20167;-72
2022/08/10 03:27:36;;;;;;;3.83;2.78;;;;;;;;;;6272583;22;20152;-73
2022/08/10 03:30:01;;;;;;;2.58;2.38;;;;;;;;;;6272977;22;20236;-73
2022/08/10 03:32:27;;;;;;;3.35;2.97;;;;;;;;;;6273378;22;20761;-72
2022/08/10 03:34:53;;;;;;;4.00;2.60;;;;;;;;;;6272780;22;20202;-73
2022/08/10 03:37:18;;;;;;;4.85;2.88;;;;;;;;;;6273935;22;20144;-73
2022/08/10 03:39:44;;;;;;;3.75;3.00;;;;;;;;;;6273639;22;20140;-72
2022/08/10 03:42:11;;;;;;;3.95;2.72;;;;;;;;;;6272652;22;20148;-72
2022/08/10 03:44:39;;;;;;;4.15;3.13;;;;;;;;;;6271381;22;20235;-73
2022/08/10 03:47:05;;;;;;;6.63;3.25;;;;;;;;;;6273579;22;20148;-73
2022/08/10 03:49:31;;;;;;;3.72;3.20;;;;;;;;;;6272025;22;20154;-73
2022/08/10 03:51:57;;;;;;;5.00;3.22;;;;;;;;;;6272937;22;20634;-73
2022/08/10 03:54:23;;;;;;;3.58;2.88;;;;;;;;;;6273039;22;20145;-73
2022/08/10 03:56:48;;;;;;;4.88;3.38;;;;;;;;;;6272492;22;20269;-73
2022/08/10 03:59:14;;;;;;;5.13;3.13;;;;;;;;;;6273664;22;20140;-73
2022/08/10 04:01:41;;;;;;;3.53;3.20;;;;;;;;;;6272258;22;20653;-73
2022/08/10 04:04:06;;;;;;;4.03;3.35;;;;;;;;;;6271651;22;20579;-73
2022/08/10 04:06:31;;;;;;;4.38;3.25;;;;;;;;;;6272732;22;20690;-73
2022/08/10 04:08:57;;;;;;;3.53;2.97;;;;;;;;;;6273156;22;20148;-73
2022/08/10 04:11:22;;;;;;;5.63;3.40;;;;;;;;;;6273386;22;20223;-73
2022/08/10 04:13:47;;;;;;;5.13;2.90;;;;;;;;;;6273630;22;20341;-73
2022/08/10 04:16:12;;;;;;;3.90;3.15;;;;;;;;;;6274083;22;20199;-72
2022/08/10 04:18:38;;;;;;;4.05;2.92;;;;;;;;;;6272721;22;20227;-73
2022/08/10 04:21:06;;;;;;;4.57;3.38;;;;;;;;;;6270884;22;20148;-73
2022/08/10 04:23:33;;;;;;;7.85;2.97;;;;;;;;;;6273429;22;20611;-73
2022/08/10 04:25:58;;;;;;;3.83;3.53;;;;;;;;;;6274036;22;20168;-73
2022/08/10 04:28:25;;;;;;;5.93;3.55;;;;;;;;;;6273224;22;20144;-73
2022/08/10 04:30:51;;;;;;;3.95;3.20;;;;;;;;;;6273033;22;20155;-73
2022/08/10 04:33:17;;;;;;;4.25;3.10;;;;;;;;;;6273052;22;20603;-73
2022/08/10 04:35:44;;;;;;;4.82;3.22;;;;;;;;;;6273679;22;20568;-73
2022/08/10 04:38:09;;;;;;;6.35;3.65;;;;;;;;;;6273165;22;20148;-73
2022/08/10 04:40:34;;;;;;;4.82;4.28;;;;;;;;;;6273505;22;20517;-73
2022/08/10 04:43:02;;;;;;;4.15;3.65;;;;;;;;;;6272570;22;20623;-73
2022/08/10 04:45:27;;;;;;;4.38;3.97;;;;;;;;;;6273981;22;20165;-73
2022/08/10 04:47:52;;;;;;;4.25;3.95;;;;;;;;;;6270703;22;20156;-73
2022/08/10 04:50:17;;;;;;;7.00;4.38;;;;;;;;;;6274029;22;20155;-73
2022/08/10 04:52:43;;;;;;;5.75;4.00;;;;;;;;;;6272619;22;20221;-73
2022/08/10 04:55:08;;;;;;;4.30;3.90;;;;;;;;;;6272216;22;20172;-73
2022/08/10 04:57:33;;;;;;;4.25;3.83;;;;;;;;;;6273370;22;20137;-73
2022/08/10 04:59:58;;;;;;;5.63;3.88;;;;;;;;;;6272600;22;20550;-73
2022/08/10 05:02:24;;;;;;;6.30;4.00;;;;;;;;;;6272436;22;20140;-73
2022/08/10 05:04:49;;;;;;;5.25;4.75;;;;;;;;;;6271584;22;20160;-73
2022/08/10 05:07:14;;;;;;;6.53;4.40;;;;;;;;;;6271945;22;20208;-72
2022/08/10 05:09:40;;;;;;;4.18;3.78;;;;;;;;;;6273840;22;20144;-72
2022/08/10 05:12:06;;;;;;;5.53;4.32;;;;;;;;;;6272310;22;20167;-72
2022/08/10 05:14:31;;;;;;;6.03;4.68;;;;;;;;;;6271768;22;20177;-72
2022/08/10 05:16:56;;;;;;;6.38;4.53;;;;;;;;;;6272650;22;20234;-72
2022/08/10 05:19:21;;;;;;;6.15;4.30;;;;;;;;;;6273786;22;20144;-73
2022/08/10 05:21:46;;;;;;;5.57;4.55;;;;;;;;;;6271981;22;20592;-72
2022/08/10 05:24:12;;;;;;;5.30;4.38;;;;;;;;;;6273378;22;20141;-73
2022/08/10 05:26:37;;;;;;;4.55;4.10;;;;;;;;;;6273928;22;20230;-72
2022/08/10 05:29:02;;;;;;;7.18;4.40;;;;;;;;;;6274432;22;20152;-72
2022/08/10 05:31:27;;;;;;;4.57;4.10;;;;;;;;;;6272968;22;20160;-73
2022/08/10 05:33:53;;;;;;;4.43;4.00;;;;;;;;;;6274870;22;20595;-73
2022/08/10 05:36:18;;;;;;;7.95;4.30;;;;;;;;;;6272917;22;20180;-73
2022/08/10 05:38:44;;;;;;;6.68;4.65;;;;;;;;;;6275280;22;20151;-73
2022/08/10 05:41:09;;;;;;;4.68;4.15;;;;;;;;;;6273869;22;20148;-74
2022/08/10 05:43:34;;;;;;;5.18;4.60;;;;;;;;;;6274224;22;20141;-73
2022/08/10 05:45:59;;;;;;;5.57;4.30;;;;;;;;;;6274853;22;20175;-73
2022/08/10 05:48:25;;;;;;;5.75;4.10;;;;;;;;;;6274241;22;20247;-73
2022/08/10 05:50:50;;;;;;;7.68;6.05;;;;;;;;;;6274190;22;20144;-73
2022/08/10 05:53:15;;;;;;;5.78;4.70;;;;;;;;;;6274598;22;20155;-73
2022/08/10 05:55:40;;;;;;;7.25;4.75;;;;;;;;;;6273872;22;20262;-73
2022/08/10 05:58:05;;;;;;;5.30;4.78;;;;;;;;;;6273653;22;20144;-73
2022/08/10 06:00:32;;;;;;;4.90;4.05;;;;;;;;;;6270101;22;20183;-71
2022/08/10 06:02:59;;;;;;;5.78;4.43;;;;;;;;;;6273890;22;20153;-72
2022/08/10 06:05:26;;;;;;;5.18;4.20;;;;;;;;;;6273592;22;20563;-70
2022/08/10 06:07:54;;;;;;;9.10;4.38;;;;;;;;;;6274942;22;20149;-71
2022/08/10 06:10:20;;;;;;;6.03;4.70;;;;;;;;;;6273738;22;20535;-74
2022/08/10 06:12:47;;;;;;;5.47;4.68;;;;;;;;;;6274531;22;20198;-73
2022/08/10 06:15:14;;;;;;;11.27;5.22;;;;;;;;;;6274271;22;20204;-74
2022/08/10 06:17:39;;;;;;;5.18;4.50;;;;;;;;;;6274779;22;20148;-73
2022/08/10 06:20:05;;;;;;;6.30;4.53;;;;;;;;;;6273231;22;20149;-73
2022/08/10 06:22:31;;;;;;;4.68;4.20;;;;;;;;;;6298831;22;20173;-72
2022/08/10 06:24:57;;;;;;;11.15;4.50;;;;;;;;;;6274466;22;20168;-72
2022/08/10 06:27:22;;;;;;;4.53;4.03;;;;;;;;;;6272891;22;20156;-73
2022/08/10 06:29:48;;;;;;;8.95;4.30;;;;;;;;;;6275041;22;20660;-72
2022/08/10 06:32:13;;;;;;;4.57;3.70;;;;;;;;;;6274358;22;20145;-72
2022/08/10 06:34:41;;;;;;;5.47;4.32;;;;;;;;;;6274851;22;20160;-72
2022/08/10 06:37:06;;;;;;;5.15;4.10;;;;;;;;;;6274216;22;20160;-72
2022/08/10 06:39:32;;;;;;;6.25;4.57;;;;;;;;;;6275456;22;20189;-72
2022/08/10 06:42:03;;;;;;;6.28;4.00;;;;;;;;;;6274811;22;20533;-72
2022/08/10 06:44:31;;;;;;;4.93;4.38;;;;;;;;;;6275053;22;20231;-72
2022/08/10 06:46:58;;;;;;;4.75;3.60;;;;;;;;;;6274728;22;20160;-72
2022/08/10 06:49:23;;;;;;;5.55;3.80;;;;;;;;;;6299396;22;20534;-72
2022/08/10 06:51:53;;;;;;;4.07;3.65;;;;;;;;;;6274256;22;20153;-73
2022/08/10 06:54:22;;;;;;;4.72;3.40;;;;;;;;;;6274417;22;20152;-72
2022/08/10 06:56:47;;;;;;;5.28;3.45;;;;;;;;;;6272743;22;20635;-72
2022/08/10 06:59:20;;;;;;;3.92;3.42;;;;;;;;;;6273616;22;20164;-72
2022/08/10 07:01:48;;;;;;;4.40;3.13;;;;;;;;;;6271071;22;20144;-72
2022/08/10 07:04:31;;;;;;;3.72;3.25;;;;;;;;;;6298829;22;20225;-72
2022/08/10 07:06:58;;;;;;;3.72;3.28;;;;;;;;;;6273705;22;20520;-72
2022/08/10 07:09:24;;;;;;;6.75;3.10;;;;;;;;;;6273189;22;20450;-72
2022/08/10 07:11:50;;;;;;;3.55;3.00;;;;;;;;;;6295497;22;20162;-71
2022/08/10 07:14:16;;;;;;;3.78;2.80;;;;;;;;;;6269808;22;20152;-72
2022/08/10 07:16:43;;;;;;;4.00;2.92;;;;;;;;;;6271600;22;20176;-72
2022/08/10 07:19:11;;;;;;;4.45;2.97;;;;;;;;;;6273150;22;20239;-73
2022/08/10 07:21:38;;;;;;;3.50;2.80;;;;;;;;;;6272701;22;20541;-72
2022/08/10 07:24:06;;;;;;;4.80;3.22;;;;;;;;;;6270677;22;20478;-72
2022/08/10 07:26:32;;;;;;;4.13;2.67;;;;;;;;;;6272610;22;20430;-72
2022/08/10 07:28:58;;;;;;;2.88;2.40;;;;;;;;;;6273752;22;20345;-72
2022/08/10 07:31:23;;;;;;;4.95;2.53;;;;;;;;;;6272006;22;20144;-72
2022/08/10 07:33:50;;;;;;;2.40;2.20;;;;;;;;;;6274065;22;20549;-72
2022/08/10 07:36:18;;;;;;;3.03;2.10;;;;;;;;;;6271221;22;20168;-72
2022/08/10 07:38:43;;;;;;;3.58;2.47;;;;;;;;;;6298046;22;20600;-72
2022/08/10 07:41:09;;;;;;;3.25;2.45;;;;;;;;;;6270959;22;20209;-73
2022/08/10 07:43:36;;;;;;;3.88;2.50;;;;;;;;;;6273990;22;20145;-71
2022/08/10 07:46:03;;;;;;;4.05;2.70;;;;;;;;;;6275697;22;20502;-72
2022/08/10 07:48:29;;;;;;;2.83;1.98;;;;;;;;;;6276851;22;20156;-71
2022/08/10 07:50:58;;;;;;;3.42;2.22;;;;;;;;;;6297473;22;20156;-72
2022/08/10 07:53:25;;;;;;;4.25;2.33;;;;;;;;;;6297140;22;20646;-69
2022/08/10 07:55:51;;;;;;;6.15;2.20;;;;;;;;;;6272525;22;20583;-72
2022/08/10 07:58:18;;;;;;;3.15;2.10;;;;;;;;;;6273113;22;20148;-72
2022/08/10 08:00:45;;;;;;;4.22;2.08;;;;;;;;;;6270447;22;20227;-71
2022/08/10 08:03:11;;;;;;;3.60;1.85;;;;;;;;;;6272590;22;20464;-71
2022/08/10 08:05:38;;;;;;;1.90;1.50;;;;;;;;;;6272859;22;20168;-72
2022/08/10 08:08:04;;;;;;;3.10;1.75;;;;;;;;;;6270415;22;20662;-72
2022/08/10 08:10:30;;;;;;;2.00;1.52;;;;;;;;;;6272263;22;20211;-72
2022/08/10 08:12:56;;;;;;;3.75;1.63;;;;;;;;;;6270189;22;20148;-71
2022/08/10 08:15:22;;;;;;;3.70;1.88;;;;;;;;;;6271985;22;20172;-72
2022/08/10 08:17:48;;;;;;;3.28;1.40;;;;;;;;;;6272877;22;20148;-72
2022/08/10 08:20:16;;;;;;;1.63;1.20;;;;;;;;;;6273960;22;20267;-72
2022/08/10 08:22:42;;;;;;;2.95;1.55;;;;;;;;;;6270504;22;20608;-71
2022/08/10 08:25:08;;;;;;;4.20;1.30;;;;;;;;;;6271682;22;20527;-71
2022/08/10 08:27:33;;;;;;;3.88;1.50;;;;;;;;;;6296744;22;20163;-72
2022/08/10 08:29:59;;;;;;;3.97;1.65;;;;;;;;;;6273086;22;20175;-72
2022/08/10 08:32:26;;;;;;;3.30;1.40;;;;;;;;;;6272861;22;20148;-71
2022/08/10 08:34:53;;;;;;;4.18;1.83;;;;;;;;;;6271046;22;20626;-71
2022/08/10 08:37:19;;;;;;;5.10;1.48;;;;;;;;;;6272576;22;20168;-72
2022/08/10 08:39:45;;;;;;;2.22;1.75;;;;;;;;;;6274124;22;20152;-72
2022/08/10 08:42:28;;;;;;;1.85;1.27;;;;;;;;;;6272659;22;20541;-72
2022/08/10 08:45:03;;;;;;;2.90;1.50;;;;;;;;;;6272538;22;20164;-72
2022/08/10 08:47:37;;;;;;;3.10;1.20;;;;;;;;;;6273648;22;20143;-72
2022/08/10 08:50:06;;;;;;;1.77;0.98;;;;;;;;;;6273126;22;20144;-72
2022/08/10 08:52:50;;;;;;;2.58;1.25;;;;;;;;;;6274138;22;20145;-72
2022/08/10 08:55:15;;;;;;;2.25;1.50;;;;;;;;;;6272916;22;20166;-71
2022/08/10 08:57:40;;;;;;;2.13;1.30;;;;;;;;;;6272745;22;20300;-72
2022/08/10 09:00:09;;;;;;;2.60;1.08;;;;;;;;;;6272127;22;20837;-72
2022/08/10 09:02:34;;;;;;;5.30;1.40;;;;;;;;;;6271795;22;20145;-72
2022/08/10 09:05:15;;;;;;;4.45;1.13;;;;;;;;;;6274414;22;20701;-72
2022/08/10 09:07:52;;;;;;;5.20;1.63;;;;;;;;;;6298791;22;20467;-71
2022/08/10 09:10:34;;;;;;;4.13;1.23;;;;;;;;;;6273257;22;20516;-72
2022/08/10 09:13:09;;;;;;;1.83;0.82;;;;;;;;;;6271066;22;20471;-72
2022/08/10 09:15:40;;;;;;;3.03;1.38;;;;;;;;;;6274108;22;20182;-72
2022/08/10 09:18:27;;;;;;;2.17;1.20;;;;;;;;;;6274302;22;20145;-72
2022/08/10 09:21:04;;;;;;;3.63;1.10;;;;;;;;;;6273208;22;20136;-72
2022/08/10 09:23:36;;;;;;;2.85;1.70;;;;;;;;;;6275173;22;20156;-73
2022/08/10 09:26:06;;;;;;;3.33;1.33;;;;;;;;;;6274230;22;20164;-72
2022/08/10 09:28:36;;;;;;;3.63;1.25;;;;;;;;;;6274086;22;20140;-72
2022/08/10 09:31:01;;;;;;;2.35;1.13;;;;;;;;;;6274869;22;20492;-72
2022/08/10 09:33:45;;;;;;;2.55;0.93;;;;;;;;;;6275747;22;20152;-72
2022/08/10 09:36:10;;;;;;;3.30;1.10;;;;;;;;;;6274259;22;20180;-73
2022/08/10 09:38:53;;;;;;;1.30;1.10;;;;;;;;;;6274043;22;20619;-73
2022/08/10 09:41:25;;;;;;;4.55;1.95;;;;;;;;;;6298403;22;20151;-72
2022/08/10 09:43:55;;;;;;;1.50;1.23;;;;;;;;;;6274706;22;20219;-72
2022/08/10 09:46:32;;;;;;;3.30;1.30;;;;;;;;;;6274287;22;20173;-73
2022/08/10 09:49:11;;;;;;;7.40;1.33;;;;;;;;;;6273262;22;20132;-72
2022/08/10 09:51:39;;;;;;;3.22;1.00;;;;;;;;;;6272933;22;20139;-72
2022/08/10 09:54:23;;;;;;;0.80;0.80;;;;;;;;;;6272609;22;20148;-72
2022/08/10 09:56:55;;;;;;;2.08;1.30;;;;;;;;;;6272653;22;20179;-72
2022/08/10 09:59:29;;;;;;;1.38;0.82;;;;;;;;;;6274378;22;20572;-72
2022/08/10 10:02:00;;;;;;;2.85;1.13;;;;;;;;;;6273544;22;20146;-72
2022/08/10 10:04:43;;;;;;;1.58;1.15;;;;;;;;;;6274910;22;20599;-72
2022/08/10 10:07:13;;;;;;;3.58;1.13;;;;;;;;;;6274700;22;20155;-72
2022/08/10 10:09:42;;;;;;;2.67;1.20;;;;;;;;;;6274272;22;20222;-72
2022/08/10 10:12:25;;;;;;;3.00;1.27;;;;;;;;;;6272417;22;20486;-72
2022/08/10 10:17:56;;;;;;;2.15;1.17;;;;;;;;;;6272177;22;20507;-72
2022/08/10 10:20:24;;;;;;;10.80;1.45;;;;;;;;;;6273376;22;20142;-72
2022/08/10 10:22:49;;;;;;;2.13;1.08;;;;;;;;;;6271223;22;20590;-72
2022/08/10 10:25:20;;;;;;;5.27;1.30;;;;;;;;;;6273192;22;20193;-73
2022/08/10 10:27:56;;;;;;;4.18;1.33;;;;;;;;;;6273291;22;20140;-72
2022/08/10 10:30:23;;;;;;;5.38;1.20;;;;;;;;;;6273194;22;20226;-70
2022/08/10 10:32:54;;;;;;;5.97;1.30;;;;;;;;;;6273634;22;20147;-72
2022/08/10 10:35:25;;;;;;;6.00;1.05;;;;;;;;;;6273044;22;20160;-71
2022/08/10 10:37:51;;;;;;;2.85;0.95;;;;;;;;;;6273462;22;20163;-72
2022/08/10 10:40:17;;;;;;;1.58;0.90;;;;;;;;;;6272435;22;20495;-72
2022/08/10 10:43:00;;;;;;;3.50;1.10;;;;;;;;;;6273399;22;20147;-72
2022/08/10 10:45:38;;;;;;;3.03;0.80;;;;;;;;;;6274524;22;20160;-72
2022/08/10 10:48:14;;;;;;;2.67;0.60;;;;;;;;;;6271419;22;20175;-72
2022/08/10 10:50:53;;;;;;;2.05;0.90;;;;;;;;;;6272960;22;20615;-72
2022/08/10 10:53:37;;;;;;;4.53;1.55;;;;;;;;;;6274048;22;20203;-72
2022/08/10 10:56:11;;;;;;;4.20;0.77;;;;;;;;;;6272606;22;20437;-71
2022/08/10 10:58:42;;;;;;;3.25;0.93;;;;;;;;;;6272456;22;20762;-71
2022/08/10 11:01:18;;;;;;;1.52;0.88;;;;;;;;;;6271626;22;20171;-71
2022/08/10 11:03:46;;;;;;;3.80;1.40;;;;;;;;;;6297889;22;20613;-71
2022/08/10 11:06:11;;;;;;;3.05;1.10;;;;;;;;;;6273122;22;20678;-72
2022/08/10 11:08:39;;;;;;;3.00;1.60;;;;;;;;;;6273257;22;20578;-72
2022/08/10 11:11:13;;;;;;;2.15;0.73;;;;;;;;;;6272888;22;20144;-72
2022/08/10 11:13:38;;;;;;;1.40;0.80;;;;;;;;;;6272776;22;20549;-71
2022/08/10 11:16:09;;;;;;;2.70;1.00;;;;;;;;;;6271419;22;20222;-71
2022/08/10 11:18:34;;;;;;;4.38;1.13;;;;;;;;;;6273304;22;20562;-72
2022/08/10 11:21:12;;;;;;;2.10;1.00;;;;;;;;;;6274656;22;20711;-72
2022/08/10 11:23:51;;;;;;;2.92;0.88;;;;;;;;;;6273307;22;20580;-72
2022/08/10 11:26:24;;;;;;;3.65;1.20;;;;;;;;;;6271854;22;20560;-72
2022/08/10 11:28:53;;;;;;;6.95;1.05;;;;;;;;;;6272792;22;20151;-72
2022/08/10 11:31:32;;;;;;;2.80;1.00;;;;;;;;;;6272619;22;20152;-72
2022/08/10 11:34:23;;;;;;;3.80;1.30;;;;;;;;;;6274066;22;20139;-73
2022/08/10 11:37:15;;;;;;;2.15;0.90;;;;;;;;;;6225418;22;20574;-72
2022/08/10 11:39:40;;;;;;;1.10;0.80;;;;;;;;;;6213728;22;20630;-72
2022/08/10 11:42:30;;;;;;;5.13;1.25;;;;;;;;;;6273684;22;20227;-72
2022/08/10 11:45:04;;;;;;;2.17;1.15;;;;;;;;;;6273007;22;20210;-72
2022/08/10 11:47:34;;;;;;;2.42;1.10;;;;;;;;;;6272094;22;20147;-72
2022/08/10 11:50:10;;;;;;;7.68;1.42;;;;;;;;;;6272995;22;20714;-72
2022/08/10 11:52:50;;;;;;;1.17;0.90;;;;;;;;;;6272165;22;20146;-72
2022/08/10 11:55:19;;;;;;;4.57;1.00;;;;;;;;;;6272073;22;20178;-72
2022/08/10 11:57:46;;;;;;;1.85;1.00;;;;;;;;;;6271656;22;20146;-71
2022/08/10 12:00:11;;;;;;;2.25;1.10;;;;;;;;;;6271188;22;20140;-71
2022/08/10 12:02:43;;;;;;;3.72;1.17;;;;;;;;;;6271381;22;20241;-72
2022/08/10 12:05:10;;;;;;;2.80;0.80;;;;;;;;;;6295968;22;20175;-71
2022/08/10 12:07:40;;;;;;;3.72;1.00;;;;;;;;;;6271442;22;20152;-72
2022/08/10 12:10:06;;;;;;;3.17;0.88;;;;;;;;;;6271948;22;20147;-72
2022/08/10 12:12:35;;;;;;;3.13;1.00;;;;;;;;;;6272023;22;20626;-72
2022/08/10 12:15:02;;;;;;;2.92;0.95;;;;;;;;;;6272031;22;20584;-71
2022/08/10 12:17:31;;;;;;;3.67;1.33;;;;;;;;;;6272300;22;20251;-72
2022/08/10 12:20:04;;;;;;;2.38;0.82;;;;;;;;;;6271726;22;20151;-72
2022/08/10 12:22:41;;;;;;;2.55;0.90;;;;;;;;;;6272558;22;20148;-72
2022/08/10 12:25:09;;;;;;;1.25;0.93;;;;;;;;;;6269863;22;20171;-71
2022/08/10 12:27:40;;;;;;;1.05;0.75;;;;;;;;;;6272036;22;20154;-71
2022/08/10 12:30:28;;;;;;;2.83;0.70;;;;;;;;;;6273089;22;20174;-72
2022/08/10 12:32:59;;;;;;;2.10;0.82;;;;;;;;;;6270372;22;20494;-72
2022/08/10 12:35:26;;;;;;;0.77;0.70;;;;;;;;;;6269730;22;20164;-72
2022/08/10 12:37:51;;;;;;;3.50;1.00;;;;;;;;;;6275862;22;20144;-72
2022/08/10 12:40:18;;;;;;;2.87;0.90;;;;;;;;;;6271416;22;20147;-72
2022/08/10 12:43:02;;;;;;;1.38;0.88;;;;;;;;;;6274939;22;20163;-72
2022/08/10 12:45:33;;;;;;;2.03;1.13;;;;;;;;;;6295291;22;20167;-72
2022/08/10 12:48:02;;;;;;;2.13;0.98;;;;;;;;;;6273728;22;20148;-72
2022/08/10 12:50:27;;;;;;;2.15;1.10;;;;;;;;;;6297560;22;20517;-72
2022/08/10 12:52:57;;;;;;;0.97;0.87;;;;;;;;;;6273450;22;20144;-72
2022/08/10 12:55:23;;;;;;;2.53;0.80;;;;;;;;;;6274956;22;20179;-72
2022/08/10 12:57:50;;;;;;;2.65;0.95;;;;;;;;;;6274286;22;20549;-72
2022/08/10 13:00:16;;;;;;;2.47;0.80;;;;;;;;;;6275219;22;20144;-72
2022/08/10 13:02:43;;;;;;;2.78;0.95;;;;;;;;;;6274185;22;20139;-72
2022/08/10 13:05:12;;;;;;;2.35;0.70;;;;;;;;;;6274644;22;20160;-72
2022/08/10 13:07:38;;;;;;;1.30;1.05;;;;;;;;;;6274604;22;20144;-72
2022/08/10 13:10:05;;;;;;;1.40;0.88;;;;;;;;;;6274666;22;20143;-72
2022/08/10 13:12:31;;;;;;;1.88;0.88;;;;;;;;;;6298414;22;20144;-72
2022/08/10 13:14:58;;;;;;;3.72;0.82;;;;;;;;;;6273417;22;20243;-72
2022/08/10 13:17:29;;;;;;;1.60;0.93;;;;;;;;;;6272842;22;20174;-72
2022/08/10 13:19:56;;;;;;;4.68;1.17;;;;;;;;;;6272091;22;20128;-72
2022/08/10 13:22:22;;;;;;;1.55;0.93;;;;;;;;;;6274817;22;20225;-72
2022/08/10 13:24:50;;;;;;;1.63;1.10;;;;;;;;;;6272215;22;20174;-70
2022/08/10 13:27:16;;;;;;;2.63;0.93;;;;;;;;;;6274368;22;20666;-72
2022/08/10 13:29:53;;;;;;;2.42;1.13;;;;;;;;;;6273884;22;20144;-72
2022/08/10 13:32:19;;;;;;;1.30;0.80;;;;;;;;;;6273809;22;20154;-72
2022/08/10 13:34:45;;;;;;;1.02;0.85;;;;;;;;;;6272731;22;20194;-72
2022/08/10 13:37:13;;;;;;;1.13;0.70;;;;;;;;;;6272663;22;20251;-72
2022/08/10 13:39:40;;;;;;;1.90;0.90;;;;;;;;;;6272639;22;20660;-72
2022/08/10 13:42:07;;;;;;;1.75;1.08;;;;;;;;;;6298338;22;20152;-72
2022/08/10 13:44:37;;;;;;;1.02;0.93;;;;;;;;;;6298264;22;20221;-72
2022/08/10 13:47:02;;;;;;;3.97;1.05;;;;;;;;;;6298081;22;20159;-72
2022/08/10 13:49:29;;;;;;;2.17;0.95;;;;;;;;;;6272266;22;20196;-71
2022/08/10 13:51:55;;;;;;;1.73;1.00;;;;;;;;;;6273961;22;20148;-72
2022/08/10 13:54:22;;;;;;;1.73;0.80;;;;;;;;;;6272774;22;20175;-72
2022/08/10 13:56:48;;;;;;;2.33;0.93;;;;;;;;;;6274498;22;20182;-72
2022/08/10 13:59:15;;;;;;;3.03;1.00;;;;;;;;;;6272391;22;20290;-72
2022/08/10 14:01:44;;;;;;;1.58;0.88;;;;;;;;;;6273969;22;20175;-72
2022/08/10 14:04:10;;;;;;;2.38;0.90;;;;;;;;;;6298849;22;20545;-72
2022/08/10 14:06:38;;;;;;;1.98;1.10;;;;;;;;;;6271750;22;20258;-72
2022/08/10 14:09:09;;;;;;;2.13;1.00;;;;;;;;;;6274618;22;20148;-72
2022/08/10 14:11:36;;;;;;;1.45;1.08;;;;;;;;;;6272660;22;20665;-72
2022/08/10 14:14:03;;;;;;;1.10;0.80;;;;;;;;;;6274720;22;20190;-72
2022/08/10 14:16:28;;;;;;;2.00;1.10;;;;;;;;;;6274537;22;20510;-72
2022/08/10 14:18:55;;;;;;;3.75;0.82;;;;;;;;;;6298800;22;20155;-71
2022/08/10 14:21:21;;;;;;;4.63;1.00;;;;;;;;;;6273865;22;20144;-72
2022/08/10 14:23:46;;;;;;;2.05;1.17;;;;;;;;;;6274174;22;20150;-72
2022/08/10 14:26:13;;;;;;;2.65;1.33;;;;;;;;;;6271447;22;20603;-71
2022/08/10 14:28:44;;;;;;;1.88;1.10;;;;;;;;;;6271863;22;20562;-71
2022/08/10 14:31:10;;;;;;;1.83;1.00;;;;;;;;;;6271834;22;20155;-71
2022/08/10 14:33:37;;;;;;;2.47;0.77;;;;;;;;;;6273250;22;20219;-72
2022/08/10 14:36:04;;;;;;;3.15;1.30;;;;;;;;;;6273414;22;20183;-72
2022/08/10 14:38:32;;;;;;;1.27;0.95;;;;;;;;;;6297431;22;20158;-72
2022/08/10 14:40:58;;;;;;;3.17;1.00;;;;;;;;;;6272760;22;20166;-72
2022/08/10 14:43:25;;;;;;;1.48;0.90;;;;;;;;;;6272240;22;20527;-72
2022/08/10 14:45:55;;;;;;;1.70;1.50;;;;;;;;;;6272049;22;20174;-72
2022/08/10 14:48:22;;;;;;;2.03;1.10;;;;;;;;;;6272673;22;20151;-72
2022/08/10 14:50:51;;;;;;;2.80;1.10;;;;;;;;;;6270059;22;20155;-72
2022/08/10 14:53:18;;;;;;;2.08;1.08;;;;;;;;;;6273316;22;20222;-72